createdAt,value
2019-01-30T00:00:36.435Z,41.35
2019-01-30T00:03:05.306Z,44.77
2019-01-30T00:05:33.723Z,44.38
2019-01-30T00:08:02.195Z,39.78
2019-01-30T00:10:30.619Z,38.07
2019-01-30T00:12:59.092Z,45.73
2019-01-30T00:15:27.572Z,40.75
2019-01-30T00:17:55.991Z,39.08
2019-01-30T00:20:24.387Z,42.27
2019-01-30T00:22:52.807Z,43.68
2019-01-30T00:25:23.733Z,40.67
2019-01-30T00:27:51.367Z,40.53
2019-01-30T00:30:22.235Z,43.08
2019-01-30T00:32:50.662Z,42.17
2019-01-30T00:35:19.086Z,38.30
2019-01-30T00:37:47.509Z,42.50
2019-01-30T00:40:19.141Z,44.05
2019-01-30T00:42:47.807Z,38.50
2019-01-30T00:45:21.251Z,43.13
2019-01-30T00:47:49.656Z,39.98
2019-01-30T00:50:23.206Z,37.70
2019-01-30T00:52:51.904Z,39.00
2019-01-30T00:55:20.440Z,39.58
2019-01-30T00:57:48.872Z,44.77
2019-01-30T01:00:19.815Z,41.23
2019-01-30T01:02:48.361Z,45.83
2019-01-30T01:05:16.784Z,38.38
2019-01-30T01:07:45.640Z,41.98
2019-01-30T01:10:16.960Z,36.70
2019-01-30T01:12:45.644Z,36.85
2019-01-30T01:15:15.888Z,43.80
2019-01-30T01:17:44.384Z,38.65
2019-01-30T01:20:20.663Z,38.95
2019-01-30T01:22:49.175Z,43.65
2019-01-30T01:25:18.315Z,39.05
2019-01-30T01:27:47.106Z,36.13
2019-01-30T01:30:25.746Z,38.92
2019-01-30T01:32:54.063Z,38.50
2019-01-30T01:35:22.472Z,38.00
2019-01-30T01:37:50.997Z,40.73
2019-01-30T01:40:19.415Z,41.13
2019-01-30T01:42:47.900Z,38.20
2019-01-30T01:45:18.920Z,40.23
2019-01-30T01:48:08.201Z,38.00
2019-01-30T01:50:36.596Z,37.17
2019-01-30T01:53:05.067Z,38.95
2019-01-30T01:55:33.491Z,41.18
2019-01-30T01:58:01.899Z,35.30
2019-01-30T02:00:35.605Z,34.73
2019-01-30T02:03:00.516Z,34.63
2019-01-30T02:05:28.928Z,38.60
2019-01-30T02:07:57.430Z,41.02
2019-01-30T02:10:26.580Z,32.97
2019-01-30T02:12:54.989Z,32.95
2019-01-30T02:15:24.089Z,33.28
2019-01-30T02:17:53.183Z,33.67
2019-01-30T02:20:30.095Z,32.48
2019-01-30T02:22:58.512Z,32.35
2019-01-30T02:25:26.991Z,31.48
2019-01-30T02:27:55.484Z,30.17
2019-01-30T02:30:26.126Z,33.25
2019-01-30T02:32:54.970Z,32.95
2019-01-30T02:35:23.675Z,32.50
2019-01-30T02:37:52.059Z,31.10
2019-01-30T02:40:21.839Z,30.37
2019-01-30T02:42:50.234Z,29.02
2019-01-30T02:45:26.154Z,32.83
2019-01-30T02:47:54.647Z,31.10
2019-01-30T02:50:23.149Z,31.35
2019-01-30T02:52:51.577Z,29.95
2019-01-30T02:55:20.634Z,29.48
2019-01-30T02:57:49.036Z,29.20
2019-01-30T03:00:23.299Z,27.67
2019-01-30T03:02:51.691Z,30.10
2019-01-30T03:05:20.270Z,28.52
2019-01-30T03:07:48.694Z,28.67
2019-01-30T03:10:21.319Z,31.82
2019-01-30T03:12:49.796Z,28.95
2019-01-30T03:15:19.649Z,29.30
2019-01-30T03:17:48.136Z,29.02
2019-01-30T03:20:21.424Z,27.15
2019-01-30T03:22:50.139Z,28.17
2019-01-30T03:25:20.531Z,27.05
2019-01-30T03:27:48.927Z,25.60
2019-01-30T03:30:19.600Z,26.45
2019-01-30T03:32:48.066Z,27.40
2019-01-30T03:35:16.544Z,23.90
2019-01-30T03:37:45.023Z,24.72
2019-01-30T03:40:19.054Z,25.17
2019-01-30T03:42:47.555Z,27.00
2019-01-30T03:45:21.436Z,24.82
2019-01-30T03:47:49.896Z,21.33
2019-01-30T03:50:18.322Z,23.90
2019-01-30T03:52:46.724Z,24.63
2019-01-30T03:55:16.963Z,28.05
2019-01-30T03:57:45.376Z,24.60
2019-01-30T04:00:16.475Z,22.73
2019-01-30T04:02:44.884Z,23.50
2019-01-30T04:05:13.356Z,25.20
2019-01-30T04:07:41.767Z,26.40
2019-01-30T04:10:21.240Z,25.82
2019-01-30T04:12:49.707Z,25.65
2019-01-30T04:15:18.247Z,27.77
2019-01-30T04:17:46.740Z,24.30
2019-01-30T04:20:19.848Z,22.70
2019-01-30T04:22:48.696Z,25.05
2019-01-30T04:25:17.294Z,26.10
2019-01-30T04:27:45.694Z,22.52
2019-01-30T04:30:19.176Z,25.13
2019-01-30T04:32:47.615Z,24.80
2019-01-30T04:35:16.097Z,26.87
2019-01-30T04:37:44.572Z,21.05
2019-01-30T04:40:17.653Z,22.75
2019-01-30T04:42:46.083Z,28.10
2019-01-30T04:45:17.383Z,22.62
2019-01-30T04:47:45.868Z,24.05
2019-01-30T04:50:14.328Z,23.92
2019-01-30T04:52:42.749Z,26.40
2019-01-30T04:55:11.503Z,24.72
2019-01-30T04:57:39.920Z,23.10
2019-01-30T05:00:11.387Z,25.30
2019-01-30T05:02:39.806Z,20.77
2019-01-30T05:05:10.349Z,24.27
2019-01-30T05:07:38.861Z,20.90
2019-01-30T05:10:10.310Z,23.38
2019-01-30T05:12:38.804Z,23.95
2019-01-30T05:15:10.499Z,22.93
2019-01-30T05:17:38.907Z,23.70
2019-01-30T05:20:10.329Z,25.55
2019-01-30T05:22:38.795Z,27.15
2019-01-30T05:25:09.064Z,25.48
2019-01-30T05:27:37.809Z,22.32
2019-01-30T05:30:15.208Z,26.52
2019-01-30T05:32:43.623Z,25.55
2019-01-30T05:35:12.041Z,26.70
2019-01-30T05:37:40.445Z,26.60
2019-01-30T05:40:14.715Z,24.60
2019-01-30T05:42:43.190Z,24.72
2019-01-30T05:45:14.144Z,24.07
2019-01-30T05:47:42.857Z,26.43
2019-01-30T05:50:12.007Z,24.02
2019-01-30T05:52:40.408Z,27.10
2019-01-30T05:55:11.161Z,26.77
2019-01-30T05:57:39.564Z,26.10
2019-01-30T06:00:13.845Z,23.47
2019-01-30T06:02:42.327Z,23.55
2019-01-30T06:05:11.049Z,25.95
2019-01-30T06:07:39.511Z,23.90
2019-01-30T06:10:09.371Z,27.80
2019-01-30T06:12:38.048Z,25.17
2019-01-30T06:15:09.867Z,26.75
2019-01-30T06:17:38.275Z,23.73
2019-01-30T06:20:09.781Z,23.95
2019-01-30T06:22:38.243Z,23.65
2019-01-30T06:25:08.808Z,25.45
2019-01-30T06:27:37.229Z,26.23
2019-01-30T06:30:09.048Z,22.62
2019-01-30T06:32:37.451Z,22.98
2019-01-30T06:35:06.336Z,26.42
2019-01-30T06:37:35.303Z,20.82
2019-01-30T06:40:05.424Z,24.40
2019-01-30T06:42:34.313Z,24.60
2019-01-30T06:45:02.720Z,24.82
2019-01-30T06:47:31.132Z,24.07
2019-01-30T06:49:59.544Z,20.35
2019-01-30T06:52:27.972Z,23.20
2019-01-30T06:54:56.404Z,22.80
2019-01-30T06:57:24.812Z,21.03
2019-01-30T06:59:53.239Z,23.55
2019-01-30T07:02:32.011Z,22.90
2019-01-30T07:04:56.375Z,31.07
2019-01-30T07:07:24.779Z,23.45
2019-01-30T07:09:53.192Z,23.52
2019-01-30T07:12:21.612Z,21.70
2019-01-30T07:14:52.925Z,25.10
2019-01-30T07:17:21.340Z,22.48
2019-01-30T07:19:50.104Z,21.20
2019-01-30T07:22:18.511Z,22.03
2019-01-30T07:24:47.004Z,22.82
2019-01-30T07:27:15.479Z,21.80
2019-01-30T07:29:43.911Z,21.73
2019-01-30T07:32:12.616Z,22.17
2019-01-30T07:34:41.035Z,21.30
2019-01-30T07:37:09.439Z,23.77
2019-01-30T07:39:37.867Z,21.55
2019-01-30T07:42:06.358Z,21.90
2019-01-30T07:44:34.761Z,22.43
2019-01-30T07:47:03.180Z,22.50
2019-01-30T07:49:31.618Z,23.17
2019-01-30T07:52:00.098Z,22.37
2019-01-30T07:54:28.503Z,23.22
2019-01-30T07:56:56.935Z,22.90
2019-01-30T07:59:25.334Z,21.65
2019-01-30T08:01:53.757Z,21.55
2019-01-30T08:04:22.207Z,19.67
2019-01-30T08:06:50.667Z,21.17
2019-01-30T08:09:19.067Z,21.02
2019-01-30T08:11:47.485Z,22.02
2019-01-30T08:14:15.895Z,20.35
2019-01-30T08:16:44.289Z,20.95
2019-01-30T08:19:12.702Z,20.02
2019-01-30T08:21:41.111Z,19.37
2019-01-30T08:24:09.530Z,21.27
2019-01-30T08:26:37.976Z,18.32
2019-01-30T08:29:06.550Z,20.35
2019-01-30T08:31:35.091Z,18.60
2019-01-30T08:34:03.519Z,19.45
2019-01-30T08:36:31.923Z,18.15
2019-01-30T08:39:00.372Z,19.40
2019-01-30T08:41:28.782Z,20.43
2019-01-30T08:43:58.076Z,18.50
2019-01-30T08:46:26.607Z,20.62
2019-01-30T08:48:55.039Z,20.62
2019-01-30T08:51:23.436Z,20.05
2019-01-30T08:53:51.868Z,18.85
2019-01-30T08:56:20.291Z,19.07
2019-01-30T08:58:48.719Z,18.90
2019-01-30T09:01:17.295Z,19.55
2019-01-30T09:03:45.739Z,18.92
2019-01-30T09:06:14.124Z,20.10
2019-01-30T09:08:42.560Z,19.80
2019-01-30T09:11:10.973Z,19.17
2019-01-30T09:13:39.456Z,18.75
2019-01-30T09:16:07.875Z,19.15
2019-01-30T09:18:36.540Z,18.62
2019-01-30T09:21:05.016Z,17.23
2019-01-30T09:23:33.466Z,17.92
2019-01-30T09:26:01.887Z,20.20
2019-01-30T09:28:30.280Z,20.02
2019-01-30T09:30:58.702Z,17.98
2019-01-30T09:33:27.127Z,18.40
2019-01-30T09:35:55.528Z,18.70
2019-01-30T09:38:24.062Z,17.52
2019-01-30T09:40:52.475Z,16.60
2019-01-30T09:43:20.944Z,16.23
2019-01-30T09:45:49.456Z,16.80
2019-01-30T09:48:18.308Z,16.02
2019-01-30T09:50:46.778Z,15.70
2019-01-30T09:53:15.293Z,17.93
2019-01-30T09:55:43.700Z,16.35
2019-01-30T09:58:12.444Z,15.45
2019-01-30T10:00:40.903Z,17.55
2019-01-30T10:03:09.333Z,15.70
2019-01-30T10:05:37.751Z,19.10
2019-01-30T10:08:06.824Z,14.65
2019-01-30T10:10:40.499Z,16.20
2019-01-30T10:13:10.027Z,15.70
2019-01-30T10:15:41.171Z,14.40
2019-01-30T10:18:10.300Z,14.70
2019-01-30T10:20:40.064Z,14.30
2019-01-30T10:23:08.827Z,15.00
2019-01-30T10:25:37.244Z,15.70
2019-01-30T10:28:15.861Z,15.23
2019-01-30T10:30:39.015Z,14.65
2019-01-30T10:33:07.523Z,13.80
2019-01-30T10:35:35.996Z,14.53
2019-01-30T10:38:04.950Z,13.55
2019-01-30T10:40:33.456Z,14.07
2019-01-30T10:43:02.327Z,13.90
2019-01-30T10:45:30.732Z,16.42
2019-01-30T10:47:59.129Z,13.43
2019-01-30T10:50:30.051Z,15.13
2019-01-30T10:52:58.538Z,15.00
2019-01-30T10:55:29.205Z,19.55
2019-01-30T10:57:59.407Z,13.55
2019-01-30T11:00:43.391Z,14.20
2019-01-30T11:03:11.819Z,13.72
2019-01-30T11:05:40.255Z,14.58
2019-01-30T11:08:08.808Z,13.28
2019-01-30T11:10:37.563Z,12.80
2019-01-30T11:13:06.725Z,14.47
2019-01-30T11:15:35.217Z,12.40
2019-01-30T11:18:05.499Z,12.73
2019-01-30T11:20:33.934Z,12.80
2019-01-30T11:23:02.332Z,14.15
2019-01-30T11:25:33.703Z,12.60
2019-01-30T11:28:02.151Z,13.22
2019-01-30T11:30:30.629Z,14.25
2019-01-30T11:32:59.057Z,12.33
2019-01-30T11:35:27.460Z,14.47
2019-01-30T11:37:55.877Z,12.98
2019-01-30T11:40:25.019Z,12.73
2019-01-30T11:42:53.462Z,11.18
2019-01-30T11:45:30.032Z,12.53
2019-01-30T11:47:58.934Z,12.50
2019-01-30T11:50:27.341Z,13.58
2019-01-30T11:52:56.092Z,12.63
2019-01-30T11:55:24.521Z,14.10
2019-01-30T11:57:52.941Z,13.20
2019-01-30T12:00:33.994Z,12.25
2019-01-30T12:03:02.700Z,12.33
2019-01-30T12:05:31.113Z,15.43
2019-01-30T12:07:59.880Z,16.00
2019-01-30T12:10:28.566Z,10.40
2019-01-30T12:12:56.976Z,12.63
2019-01-30T12:15:26.519Z,12.40
2019-01-30T12:17:54.920Z,14.18
2019-01-30T12:20:23.344Z,11.05
2019-01-30T12:22:51.749Z,10.32
2019-01-30T12:25:21.696Z,11.08
2019-01-30T12:27:50.955Z,10.75
2019-01-30T12:30:27.868Z,9.30
2019-01-30T12:32:56.277Z,10.97
2019-01-30T12:35:24.918Z,9.40
2019-01-30T12:37:53.383Z,12.53
2019-01-30T12:40:25.771Z,10.98
2019-01-30T12:42:54.499Z,8.38
2019-01-30T12:45:34.423Z,10.23
2019-01-30T12:48:02.848Z,10.83
2019-01-30T12:50:31.332Z,8.73
2019-01-30T12:52:59.910Z,8.67
2019-01-30T12:55:29.478Z,7.85
2019-01-30T12:57:59.487Z,8.85
2019-01-30T13:00:36.730Z,9.35
2019-01-30T13:03:05.488Z,8.15
2019-01-30T13:05:34.026Z,9.37
2019-01-30T13:08:02.424Z,7.08
2019-01-30T13:10:30.830Z,9.30
2019-01-30T13:12:59.212Z,7.60
2019-01-30T13:15:28.959Z,9.43
2019-01-30T13:17:57.905Z,8.05
2019-01-30T13:20:26.333Z,8.35
2019-01-30T13:22:54.720Z,8.95
2019-01-30T13:25:26.035Z,7.78
2019-01-30T13:27:54.450Z,10.13
2019-01-30T13:30:28.458Z,7.80
2019-01-30T13:32:56.848Z,7.73
2019-01-30T13:35:25.245Z,7.40
2019-01-30T13:37:53.649Z,11.40
2019-01-30T13:40:33.874Z,6.50
2019-01-30T13:43:02.641Z,7.20
2019-01-30T13:45:31.315Z,10.70
2019-01-30T13:48:00.091Z,8.63
2019-01-30T13:50:29.532Z,5.62
2019-01-30T13:52:58.100Z,7.50
2019-01-30T13:55:26.637Z,5.25
2019-01-30T13:57:55.313Z,7.62
2019-01-30T14:00:26.959Z,6.22
2019-01-30T14:02:55.424Z,5.50
2019-01-30T14:05:23.996Z,6.30
2019-01-30T14:07:52.482Z,8.33
2019-01-30T14:10:21.041Z,7.10
2019-01-30T14:12:49.465Z,5.55
2019-01-30T14:15:23.731Z,5.90
2019-01-30T14:17:52.130Z,5.03
2019-01-30T14:20:20.635Z,8.30
2019-01-30T14:22:49.117Z,8.60
2019-01-30T14:25:17.881Z,7.83
2019-01-30T14:27:46.285Z,6.30
2019-01-30T14:30:26.065Z,6.00
2019-01-30T14:32:54.511Z,7.55
2019-01-30T14:35:44.466Z,7.50
2019-01-30T14:38:12.862Z,7.37
2019-01-30T14:40:41.429Z,5.72
2019-01-30T14:43:09.955Z,5.50
2019-01-30T14:45:38.370Z,8.45
2019-01-30T14:48:06.818Z,8.93
2019-01-30T14:50:35.196Z,6.67
2019-01-30T14:53:03.648Z,6.10
2019-01-30T14:55:32.207Z,7.77
2019-01-30T14:58:00.683Z,5.35
2019-01-30T15:00:31.138Z,7.43
2019-01-30T15:02:59.608Z,9.28
2019-01-30T15:05:29.134Z,9.03
2019-01-30T15:07:57.629Z,8.10
2019-01-30T15:10:28.690Z,6.90
2019-01-30T15:12:57.127Z,7.05
2019-01-30T15:15:27.582Z,5.70
2019-01-30T15:17:56.003Z,7.00
2019-01-30T15:20:26.430Z,7.30
2019-01-30T15:22:55.371Z,8.45
2019-01-30T15:25:24.495Z,8.43
2019-01-30T15:27:53.187Z,10.20
2019-01-30T15:30:27.625Z,8.30
2019-01-30T15:32:56.012Z,9.08
2019-01-30T15:35:33.239Z,10.50
2019-01-30T15:37:54.536Z,10.78
2019-01-30T15:40:25.667Z,7.75
2019-01-30T15:42:54.068Z,10.58
2019-01-30T15:45:24.732Z,11.10
2019-01-30T15:47:53.144Z,12.70
2019-01-30T15:50:33.401Z,14.00
2019-01-30T15:53:01.945Z,9.38
2019-01-30T15:55:30.391Z,12.60
2019-01-30T15:58:01.665Z,10.38
2019-01-30T16:00:39.072Z,9.83
2019-01-30T16:03:07.561Z,12.15
2019-01-30T16:05:44.532Z,11.18
2019-01-30T16:08:06.225Z,10.70
2019-01-30T16:10:35.355Z,10.43
2019-01-30T16:13:04.142Z,10.82
2019-01-30T16:15:38.715Z,10.32
2019-01-30T16:18:07.457Z,9.70
2019-01-30T16:20:35.884Z,11.90
2019-01-30T16:23:05.033Z,11.05
2019-01-30T16:25:33.495Z,12.90
2019-01-30T16:28:01.910Z,11.10
2019-01-30T16:30:30.309Z,13.13
2019-01-30T16:32:58.699Z,10.30
2019-01-30T16:35:31.903Z,12.00
2019-01-30T16:38:00.503Z,11.97
2019-01-30T16:40:29.007Z,11.95
2019-01-30T16:42:57.426Z,11.25
2019-01-30T16:45:31.067Z,11.90
2019-01-30T16:47:59.756Z,13.28
2019-01-30T16:50:28.447Z,11.15
2019-01-30T16:52:56.861Z,15.05
2019-01-30T16:55:25.276Z,11.12
2019-01-30T16:57:53.779Z,12.33
2019-01-30T17:00:25.257Z,11.70
2019-01-30T17:02:54.024Z,12.95
2019-01-30T17:05:22.775Z,12.05
2019-01-30T17:07:51.199Z,12.15
2019-01-30T17:10:20.147Z,12.80
2019-01-30T17:12:48.559Z,11.33
2019-01-30T17:15:29.420Z,11.43
2019-01-30T17:17:57.816Z,10.90
2019-01-30T17:20:28.493Z,14.17
2019-01-30T17:22:56.906Z,12.30
2019-01-30T17:25:25.655Z,12.88
2019-01-30T17:27:54.129Z,11.55
2019-01-30T17:30:28.808Z,11.00
2019-01-30T17:32:57.214Z,13.00
2019-01-30T17:35:26.181Z,12.35
2019-01-30T17:37:54.585Z,13.70
2019-01-30T17:40:25.072Z,13.05
2019-01-30T17:42:53.561Z,13.22
2019-01-30T17:45:21.960Z,11.50
2019-01-30T17:47:50.816Z,11.95
2019-01-30T17:50:22.367Z,11.75
2019-01-30T17:52:50.783Z,11.97
2019-01-30T17:55:19.470Z,13.30
2019-01-30T17:57:47.949Z,12.78
2019-01-30T18:00:29.256Z,12.98
2019-01-30T18:02:57.660Z,13.13
2019-01-30T18:05:26.091Z,13.15
2019-01-30T18:07:54.500Z,14.83
2019-01-30T18:10:22.924Z,15.20
2019-01-30T18:12:51.338Z,14.07
2019-01-30T18:15:19.832Z,15.05
2019-01-30T18:17:48.331Z,13.90
2019-01-30T18:20:20.823Z,14.53
2019-01-30T18:22:49.245Z,15.35
2019-01-30T18:25:21.423Z,16.07
2019-01-30T18:27:50.215Z,15.38
2019-01-30T18:30:20.153Z,15.35
2019-01-30T18:32:48.756Z,17.92
2019-01-30T18:35:17.416Z,16.80
2019-01-30T18:37:45.989Z,16.10
2019-01-30T18:40:30.315Z,18.55
2019-01-30T18:42:58.720Z,17.57
2019-01-30T18:45:28.423Z,18.20
2019-01-30T18:47:56.950Z,18.50
2019-01-30T18:50:27.655Z,18.62
2019-01-30T18:52:56.131Z,19.02
2019-01-30T18:55:24.724Z,18.85
2019-01-30T18:57:53.375Z,21.95
2019-01-30T19:00:27.287Z,22.37
2019-01-30T19:02:57.649Z,21.30
2019-01-30T19:05:26.131Z,23.15
2019-01-30T19:07:54.575Z,22.48
2019-01-30T19:10:22.981Z,24.07
2019-01-30T19:12:51.802Z,24.57
2019-01-30T19:15:25.214Z,22.52
2019-01-30T19:17:53.895Z,24.47
2019-01-30T19:20:25.372Z,23.22
2019-01-30T19:22:53.899Z,24.98
2019-01-30T19:25:22.331Z,24.87
2019-01-30T19:27:50.757Z,26.90
2019-01-30T19:30:21.627Z,27.65
2019-01-30T19:32:50.386Z,26.55
2019-01-30T19:35:19.099Z,28.75
2019-01-30T19:37:47.510Z,27.10
2019-01-30T19:40:16.765Z,29.57
2019-01-30T19:42:45.178Z,27.27
2019-01-30T19:45:22.451Z,26.52
2019-01-30T19:47:50.872Z,27.35
2019-01-30T19:50:21.329Z,27.00
2019-01-30T19:52:49.896Z,27.13
2019-01-30T19:55:18.372Z,29.00
2019-01-30T19:57:46.844Z,28.75
2019-01-30T20:00:21.273Z,29.05
2019-01-30T20:02:50.520Z,27.73
2019-01-30T20:05:19.373Z,29.05
2019-01-30T20:07:47.773Z,27.57
2019-01-30T20:10:19.037Z,28.30
2019-01-30T20:12:47.439Z,29.00
2019-01-30T20:15:15.955Z,28.62
2019-01-30T20:17:44.643Z,28.67
2019-01-30T20:20:15.689Z,29.87
2019-01-30T20:22:44.247Z,29.57
2019-01-30T20:25:18.543Z,29.60
2019-01-30T20:27:47.284Z,30.27
2019-01-30T20:30:17.962Z,30.02
2019-01-30T20:32:46.513Z,32.70
2019-01-30T20:35:14.983Z,34.30
2019-01-30T20:37:43.395Z,32.45
2019-01-30T20:40:19.739Z,33.67
2019-01-30T20:42:48.167Z,32.45
2019-01-30T20:45:16.648Z,31.97
2019-01-30T20:47:45.071Z,32.05
2019-01-30T20:50:21.307Z,33.88
2019-01-30T20:52:49.719Z,31.70
2019-01-30T20:55:18.507Z,32.55
2019-01-30T20:57:47.167Z,32.33
2019-01-30T21:00:24.072Z,32.20
2019-01-30T21:02:52.568Z,30.23
2019-01-30T21:05:20.973Z,33.70
2019-01-30T21:07:49.427Z,32.53
2019-01-30T21:10:26.363Z,31.40
2019-01-30T21:12:54.781Z,31.42
2019-01-30T21:15:23.216Z,32.33
2019-01-30T21:17:51.621Z,31.25
2019-01-30T21:20:20.184Z,29.87
2019-01-30T21:22:48.604Z,35.50
2019-01-30T21:25:21.263Z,31.42
2019-01-30T21:27:50.004Z,29.95
2019-01-30T21:30:29.652Z,30.37
2019-01-30T21:32:58.131Z,30.85
2019-01-30T21:35:26.528Z,34.80
2019-01-30T21:37:54.941Z,31.27
2019-01-30T21:40:23.344Z,34.55
2019-01-30T21:42:51.787Z,32.08
2019-01-30T21:45:22.391Z,32.60
2019-01-30T21:47:51.481Z,32.63
2019-01-30T21:50:20.424Z,31.33
2019-01-30T21:52:48.903Z,29.92
2019-01-30T21:55:19.274Z,32.05
2019-01-30T21:57:47.802Z,30.50
2019-01-30T22:00:18.768Z,30.08
2019-01-30T22:02:47.251Z,32.95
2019-01-30T22:05:16.327Z,30.45
2019-01-30T22:07:44.756Z,31.93
2019-01-30T22:10:21.372Z,31.70
2019-01-30T22:12:49.812Z,31.52
2019-01-30T22:15:18.262Z,33.40
2019-01-30T22:17:47.069Z,29.50
2019-01-30T22:20:25.611Z,29.63
2019-01-30T22:22:54.462Z,32.28
2019-01-30T22:25:24.795Z,29.90
2019-01-30T22:27:53.203Z,29.98
2019-01-30T22:30:31.453Z,29.65
2019-01-30T22:32:59.933Z,29.07
2019-01-30T22:35:28.502Z,27.77
2019-01-30T22:37:56.916Z,29.07
2019-01-30T22:40:25.396Z,30.72
2019-01-30T22:42:53.808Z,30.37
2019-01-30T22:45:23.244Z,29.92
2019-01-30T22:47:51.734Z,27.70
2019-01-30T22:50:20.976Z,29.30
2019-01-30T22:52:49.636Z,30.47
2019-01-30T22:55:19.872Z,31.25
2019-01-30T22:57:50.798Z,28.60
2019-01-30T23:00:32.535Z,29.30
2019-01-30T23:03:01.292Z,26.57
2019-01-30T23:05:35.682Z,28.98
2019-01-30T23:08:04.955Z,28.05
2019-01-30T23:10:48.552Z,27.93
2019-01-30T23:13:23.248Z,29.65
2019-01-30T23:16:00.203Z,30.65
2019-01-30T23:18:56.063Z,29.10
2019-01-30T23:21:36.489Z,31.05
2019-01-30T23:24:13.708Z,27.27
2019-01-30T23:26:47.670Z,29.27
2019-01-30T23:29:24.928Z,27.85
2019-01-30T23:31:59.135Z,30.30
2019-01-30T23:34:33.148Z,28.23
2019-01-30T23:37:10.525Z,29.63
2019-01-30T23:39:44.901Z,28.98
2019-01-30T23:42:31.703Z,27.37
2019-01-30T23:45:33.751Z,28.30
2019-01-30T23:48:21.823Z,29.35
2019-01-30T23:50:56.116Z,28.30
2019-01-30T23:53:42.684Z,29.27
2019-01-30T23:56:28.451Z,29.82
2019-01-30T23:59:08.434Z,30.80
